Time;durP1;ratioP1;P1;durP2;ratioP2;P2;SDS_P1;SDS_P2;PMS_P1;PMS_P2;Temp;Humidity;BMP_temperature;BMP_pressure;BME280_temperature;BME280_humidity;BME280_pressure;Samples;Min_cycle;Max_cycle;Signal;HPM_P1;HPM_P2
2021/07/31 00:00:38;;;;;;;23.77;12.53;;;;;;;20.03;72.33;100102.82;1733070;83;21864;-58
2021/07/31 00:03:45;;;;;;;23.10;12.23;;;;;;;20.00;72.33;100093.58;1732912;83;21387;-58
2021/07/31 00:06:53;;;;;;;18.95;13.00;;;;;;;19.99;72.32;100100.24;1729728;82;21259;-58
2021/07/31 00:09:58;;;;;;;21.35;13.25;;;;;;;19.96;72.37;100104.37;1741789;82;21397;-58
2021/07/31 00:13:04;;;;;;;20.02;12.37;;;;;;;19.93;72.44;100105.39;1735343;82;21363;-58
2021/07/31 00:16:10;;;;;;;20.12;12.70;;;;;;;19.90;72.48;100098.37;1728303;83;21227;-58
2021/07/31 00:19:16;;;;;;;27.20;12.78;;;;;;;19.82;72.57;100098.73;1728304;83;21200;-58
2021/07/31 00:22:22;;;;;;;21.82;13.53;;;;;;;19.71;72.81;100107.92;1725569;82;21378;-59
2021/07/31 00:25:27;;;;;;;20.02;12.23;;;;;;;19.64;73.17;100107.75;1741743;82;21352;-58
2021/07/31 00:28:36;;;;;;;20.27;12.65;;;;;;;19.60;73.56;100105.16;1741718;82;21426;-59
2021/07/31 00:31:41;;;;;;;21.70;13.70;;;;;;;19.54;73.74;100105.56;1741599;82;21433;-58
2021/07/31 00:34:48;;;;;;;20.80;12.45;;;;;;;19.52;74.02;100111.07;1741647;82;21843;-58
2021/07/31 00:37:57;;;;;;;19.92;13.68;;;;;;;19.53;74.33;100109.98;1741603;82;21378;-58
2021/07/31 00:41:04;;;;;;;20.92;12.95;;;;;;;19.54;74.37;100111.13;1729360;81;21276;-58
2021/07/31 00:44:11;;;;;;;19.73;11.78;;;;;;;19.53;74.24;100108.59;1728196;83;21263;-59
2021/07/31 00:47:20;;;;;;;21.07;12.68;;;;;;;19.49;74.30;100102.66;1715920;82;21347;-59
2021/07/31 00:50:25;;;;;;;19.10;12.25;;;;;;;19.47;74.49;100106.78;1728266;83;21241;-58
2021/07/31 00:53:33;;;;;;;24.40;13.13;;;;;;;19.43;74.52;100109.72;1728380;83;21757;-58
2021/07/31 00:56:39;;;;;;;21.20;13.85;;;;;;;19.37;74.57;100107.90;1714937;83;21813;-59
2021/07/31 00:59:48;;;;;;;17.37;12.10;;;;;;;19.34;74.98;100105.90;1728378;83;21212;-58
2021/07/31 01:02:56;;;;;;;25.30;13.62;;;;;;;19.33;75.44;100105.61;1728497;83;21880;-59
2021/07/31 01:06:01;;;;;;;21.42;13.43;;;;;;;19.34;75.97;100105.90;1707567;82;21244;-58
2021/07/31 01:09:08;;;;;;;19.10;12.05;;;;;;;19.37;76.19;100107.90;1728487;82;21253;-58
2021/07/31 01:12:15;;;;;;;19.45;12.90;;;;;;;19.34;76.22;100111.45;1728624;83;21216;-58
2021/07/31 01:15:21;;;;;;;21.30;12.60;;;;;;;19.34;76.37;100109.23;1734209;82;21235;-57
2021/07/31 01:18:27;;;;;;;23.07;13.10;;;;;;;19.35;76.45;100105.37;1738503;82;21192;-57
2021/07/31 01:21:49;;;;;;;33.53;13.80;;;;;;;19.38;76.35;100102.67;1736446;82;21371;-58
2021/07/31 01:24:58;;;;;;;29.00;13.45;;;;;;;19.36;76.19;100105.66;1736152;82;21939;-58
2021/07/31 01:28:06;;;;;;;25.02;12.73;;;;;;;19.36;76.20;100109.00;1736226;82;21382;-58
2021/07/31 01:31:12;;;;;;;25.52;13.08;;;;;;;19.37;76.14;100111.53;1719606;82;21232;-58
2021/07/31 01:34:17;;;;;;;24.40;12.45;;;;;;;19.38;75.86;100107.66;1720031;82;21204;-58
2021/07/31 01:37:23;;;;;;;23.65;12.43;;;;;;;19.34;75.67;100108.67;1744493;82;21398;-58
2021/07/31 01:40:31;;;;;;;18.75;11.60;;;;;;;19.29;75.53;100112.73;1742629;82;21836;-58
2021/07/31 01:43:40;;;;;;;20.95;12.58;;;;;;;19.26;75.48;100106.25;1716883;82;21662;-58
2021/07/31 01:46:45;;;;;;;25.20;12.40;;;;;;;19.25;75.63;100115.64;1736115;82;21398;-58
2021/07/31 01:49:51;;;;;;;25.55;12.98;;;;;;;19.24;75.62;100112.56;1736099;82;21347;-58
2021/07/31 01:52:59;;;;;;;21.80;13.55;;;;;;;19.24;75.56;100112.56;1736202;82;21358;-59
2021/07/31 01:56:05;;;;;;;24.15;13.22;;;;;;;19.24;75.44;100113.95;1736235;82;21232;-58
2021/07/31 01:59:11;;;;;;;18.62;13.45;;;;;;;19.20;75.25;100118.84;1736366;82;21343;-59
2021/07/31 02:02:17;;;;;;;18.70;13.10;;;;;;;19.15;75.37;100117.31;1736243;82;21227;-59
2021/07/31 02:05:25;;;;;;;19.02;13.10;;;;;;;19.10;75.52;100119.42;1736166;82;21907;-58
2021/07/31 02:08:31;;;;;;;21.12;13.00;;;;;;;19.05;75.55;100120.67;1736269;82;21808;-58
2021/07/31 02:11:42;;;;;;;22.77;13.58;;;;;;;19.00;75.70;100122.45;1674239;85;21385;-58
2021/07/31 02:14:49;;;;;;;23.42;13.48;;;;;;;18.94;75.91;100124.25;1681026;84;21193;-58
2021/07/31 02:17:57;;;;;;;25.62;12.03;;;;;;;18.93;76.18;100123.92;1677867;85;21899;-58
2021/07/31 02:21:02;;;;;;;23.67;12.98;;;;;;;18.95;76.40;100128.70;1672737;86;21438;-58
2021/07/31 02:24:25;;;;;;;20.50;12.58;;;;;;;19.00;76.43;100127.99;1720519;82;21418;-58
2021/07/31 02:27:32;;;;;;;21.10;13.25;;;;;;;19.02;76.27;100131.39;1734171;82;21362;-58
2021/07/31 02:30:39;;;;;;;26.02;12.88;;;;;;;19.04;76.20;100124.50;1735795;82;21369;-58
2021/07/31 02:33:45;;;;;;;23.90;13.93;;;;;;;19.05;76.15;100126.22;1735662;82;21821;-58
2021/07/31 02:36:56;;;;;;;19.15;13.83;;;;;;;19.09;76.02;100126.59;1735752;82;21997;-58
2021/07/31 02:40:04;;;;;;;20.92;13.22;;;;;;;19.11;75.85;100124.41;1735796;82;21213;-58
2021/07/31 02:43:13;;;;;;;29.72;18.12;;;;;;;19.12;75.72;100131.11;1735629;82;21334;-58
2021/07/31 02:46:20;;;;;;;32.70;18.80;;;;;;;19.14;75.68;100130.34;1735638;82;21267;-58
2021/07/31 02:49:25;;;;;;;32.70;19.67;;;;;;;19.15;75.72;100133.40;1735542;82;21265;-58
2021/07/31 02:52:30;;;;;;;27.50;18.23;;;;;;;19.17;75.75;100135.97;1735535;82;21800;-58
2021/07/31 02:55:36;;;;;;;29.77;16.97;;;;;;;19.21;75.69;100139.95;1735822;82;21225;-58
2021/07/31 02:58:41;;;;;;;25.52;15.85;;;;;;;19.25;75.60;100140.61;1735545;82;21232;-58
2021/07/31 03:01:48;;;;;;;26.10;15.23;;;;;;;19.29;75.54;100143.80;1735562;82;21259;-58
2021/07/31 03:04:55;;;;;;;26.62;15.30;;;;;;;19.33;75.43;100137.53;1735594;82;21291;-58
2021/07/31 03:08:03;;;;;;;26.73;14.43;;;;;;;19.37;75.30;100145.37;1696315;82;21252;-57
2021/07/31 03:11:13;;;;;;;24.63;15.20;;;;;;;19.39;75.44;100147.38;1735689;82;21272;-57
2021/07/31 03:14:20;;;;;;;24.92;14.70;;;;;;;19.45;75.45;100147.81;1735662;82;21189;-58
2021/07/31 03:17:27;;;;;;;27.55;14.73;;;;;;;19.52;75.26;100147.99;1732493;80;21611;-58
2021/07/31 03:20:37;;;;;;;28.35;15.23;;;;;;;19.60;75.06;100145.44;1690770;83;21212;-58
2021/07/31 03:23:48;;;;;;;23.27;14.53;;;;;;;19.66;74.86;100151.41;1675223;85;21239;-58
2021/07/31 03:26:53;;;;;;;25.27;15.03;;;;;;;19.74;74.75;100151.05;1697052;83;21212;-58
2021/07/31 03:30:15;;;;;;;27.07;15.38;;;;;;;19.83;74.69;100152.37;1698709;84;21357;-59
2021/07/31 03:33:24;;;;;;;28.07;15.15;;;;;;;19.93;74.61;100156.80;1676670;84;21733;-58
2021/07/31 03:36:32;;;;;;;46.35;26.15;;;;;;;20.01;74.57;100163.38;1681335;85;21376;-58
2021/07/31 03:39:39;;;;;;;59.77;35.50;;;;;;;20.11;74.46;100164.98;1684831;84;21971;-57
2021/07/31 03:42:46;;;;;;;56.63;31.35;;;;;;;20.20;74.04;100157.45;1675499;85;21354;-57
2021/07/31 03:45:53;;;;;;;48.78;27.80;;;;;;;20.31;73.57;100165.50;1683003;85;21214;-58
2021/07/31 03:48:58;;;;;;;47.33;26.62;;;;;;;20.39;73.01;100159.56;1682848;85;21211;-57
2021/07/31 03:52:04;;;;;;;34.43;21.37;;;;;;;20.47;72.60;100158.62;1709319;83;21386;-58
2021/07/31 03:55:16;;;;;;;32.38;19.65;;;;;;;20.55;72.28;100162.98;1676594;85;21216;-58
2021/07/31 03:58:23;;;;;;;31.33;18.85;;;;;;;20.60;72.00;100168.09;1675888;85;21355;-57
2021/07/31 04:01:30;;;;;;;28.45;16.70;;;;;;;20.69;71.80;100168.55;1708196;82;21600;-57
2021/07/31 04:04:36;;;;;;;22.62;16.02;;;;;;;20.78;71.53;100169.84;1682859;85;21195;-58
2021/07/31 04:07:42;;;;;;;22.37;15.00;;;;;;;20.86;71.33;100175.02;1682726;85;21287;-58
2021/07/31 04:11:04;;;;;;;21.33;14.93;;;;;;;20.95;71.08;100172.14;1693015;84;21231;-57
2021/07/31 04:14:12;;;;;;;18.00;12.82;;;;;;;21.06;70.93;100177.41;1692256;83;21204;-58
2021/07/31 04:17:24;;;;;;;16.67;12.70;;;;;;;21.12;70.57;100176.41;1683289;82;21243;-59
2021/07/31 04:20:31;;;;;;;23.77;14.23;;;;;;;21.19;70.43;100180.72;1683407;84;21284;-58
2021/07/31 04:23:37;;;;;;;18.67;13.50;;;;;;;21.29;70.30;100183.70;1696244;84;21212;-58
2021/07/31 04:26:42;;;;;;;21.75;13.83;;;;;;;21.39;70.18;100188.05;1703257;84;21244;-58
2021/07/31 04:29:48;;;;;;;19.32;12.60;;;;;;;21.48;70.05;100179.59;1683290;84;21782;-57
2021/07/31 04:32:59;;;;;;;17.17;12.68;;;;;;;21.58;69.82;100176.97;1696773;84;21249;-58
2021/07/31 04:36:08;;;;;;;18.67;12.60;;;;;;;21.68;69.38;100180.48;1696866;84;21296;-57
2021/07/31 04:39:15;;;;;;;15.05;12.63;;;;;;;21.79;69.08;100179.05;1701238;84;21232;-58
2021/07/31 04:42:24;;;;;;;18.85;13.13;;;;;;;21.90;68.80;100185.08;1714122;82;21252;-58
2021/07/31 04:45:30;;;;;;;17.40;12.73;;;;;;;22.02;68.63;100177.45;1725187;83;21272;-58
2021/07/31 04:48:36;;;;;;;20.10;13.75;;;;;;;22.13;68.46;100176.54;1725543;83;21503;-58
2021/07/31 04:51:42;;;;;;;18.65;12.90;;;;;;;22.27;68.49;100179.80;1725125;83;21371;-58
2021/07/31 04:54:49;;;;;;;18.90;12.98;;;;;;;22.41;68.45;100182.50;1725309;83;21880;-58
2021/07/31 04:57:54;;;;;;;18.52;11.88;;;;;;;22.52;68.23;100175.14;1726590;82;21205;-59
2021/07/31 05:01:01;;;;;;;16.77;12.33;;;;;;;22.66;67.83;100184.84;1725983;82;21367;-58
2021/07/31 05:04:06;;;;;;;15.65;11.83;;;;;;;22.78;67.65;100181.36;1725460;83;21201;-58
2021/07/31 05:07:12;;;;;;;16.95;12.23;;;;;;;22.90;67.24;100186.24;1725570;83;21256;-59
2021/07/31 05:10:21;;;;;;;16.25;12.35;;;;;;;23.02;66.80;100191.16;1712175;83;21367;-59
2021/07/31 05:13:28;;;;;;;20.00;11.28;;;;;;;23.13;66.52;100186.83;1725140;83;21737;-59
2021/07/31 05:16:35;;;;;;;16.35;12.18;;;;;;;23.25;66.35;100195.03;1725637;82;21241;-59
2021/07/31 05:19:44;;;;;;;20.30;12.20;;;;;;;23.37;66.05;100195.20;1710549;82;21265;-59
2021/07/31 05:22:50;;;;;;;13.68;11.15;;;;;;;23.47;65.83;100193.06;1704949;84;21248;-59
2021/07/31 05:25:56;;;;;;;14.40;11.97;;;;;;;23.57;65.77;100194.02;1704843;84;21247;-58
2021/07/31 05:29:02;;;;;;;18.25;12.05;;;;;;;23.69;65.39;100195.23;1704556;84;21756;-58
2021/07/31 05:32:12;;;;;;;18.30;11.80;;;;;;;23.80;65.31;100201.20;1704795;84;21333;-59
2021/07/31 05:35:18;;;;;;;17.52;11.95;;;;;;;23.92;65.12;100208.88;1690549;83;21232;-59
2021/07/31 05:38:27;;;;;;;15.30;11.90;;;;;;;24.05;64.87;100211.80;1705200;84;21231;-58
2021/07/31 05:41:34;;;;;;;14.00;12.15;;;;;;;24.14;64.60;100213.83;1704991;84;21253;-59
2021/07/31 05:44:40;;;;;;;16.32;11.43;;;;;;;24.27;64.55;100215.32;1705204;84;21792;-59
2021/07/31 05:47:47;;;;;;;14.90;12.07;;;;;;;24.38;64.20;100214.28;1705001;84;21544;-58
2021/07/31 05:50:52;;;;;;;19.42;13.20;;;;;;;24.49;64.07;100209.87;1714183;82;21212;-58
2021/07/31 05:53:59;;;;;;;16.57;12.20;;;;;;;24.60;63.75;100206.02;1732681;83;21367;-59
2021/07/31 05:57:06;;;;;;;14.90;12.10;;;;;;;24.70;63.59;100213.13;1732814;83;21351;-58
2021/07/31 06:00:17;;;;;;;19.12;11.57;;;;;;;24.79;62.99;100194.67;1732345;83;21821;-59
2021/07/31 06:03:23;;;;;;;13.58;11.28;;;;;;;24.90;62.67;100206.20;1732868;83;21383;-60
2021/07/31 06:06:30;;;;;;;18.60;12.55;;;;;;;25.00;62.24;100204.86;1732835;83;21750;-58
2021/07/31 06:09:38;;;;;;;13.48;10.53;;;;;;;25.13;61.91;100198.44;1732710;83;21236;-58
2021/07/31 06:12:45;;;;;;;14.33;11.15;;;;;;;25.24;61.30;100192.61;1732801;83;21236;-59
2021/07/31 06:15:52;;;;;;;15.72;11.10;;;;;;;25.37;60.95;100205.27;1732805;83;21405;-58
2021/07/31 06:19:00;;;;;;;12.28;9.93;;;;;;;25.46;60.34;100200.25;1732831;83;21232;-58
2021/07/31 06:22:06;;;;;;;11.08;8.53;;;;;;;25.57;59.83;100203.35;1732906;82;21862;-58
2021/07/31 06:25:16;;;;;;;10.72;9.10;;;;;;;25.68;58.56;100199.44;1727856;83;21206;-58
2021/07/31 06:28:24;;;;;;;9.93;8.93;;;;;;;25.80;58.05;100201.41;1727338;83;21423;-58
2021/07/31 06:31:30;;;;;;;11.85;8.75;;;;;;;25.92;57.52;100201.12;1727291;83;21390;-59
2021/07/31 06:34:36;;;;;;;10.03;8.85;;;;;;;26.03;56.89;100204.25;1729202;82;21225;-59
2021/07/31 06:37:41;;;;;;;10.08;9.00;;;;;;;26.14;56.66;100203.12;1727262;83;21233;-59
2021/07/31 06:40:49;;;;;;;8.58;7.60;;;;;;;26.26;56.71;100198.04;1700988;83;21236;-58
2021/07/31 06:43:58;;;;;;;9.50;6.75;;;;;;;26.34;54.60;100198.87;1672984;85;21386;-57
2021/07/31 06:47:05;;;;;;;9.60;7.08;;;;;;;26.45;53.76;100201.38;1699804;84;21240;-59
2021/07/31 06:50:15;;;;;;;7.67;6.90;;;;;;;26.58;53.21;100194.33;1699484;84;21430;-59
2021/07/31 06:53:22;;;;;;;8.68;7.30;;;;;;;26.70;52.27;100191.25;1699603;84;21403;-59
2021/07/31 06:56:29;;;;;;;9.68;8.00;;;;;;;26.77;51.58;100196.83;1699251;84;21441;-58
2021/07/31 06:59:35;;;;;;;10.08;7.40;;;;;;;26.87;51.87;100194.55;1699618;83;21363;-59
2021/07/31 07:02:43;;;;;;;10.15;7.05;;;;;;;26.93;51.24;100191.44;1656817;83;21231;-59
2021/07/31 07:05:49;;;;;;;7.67;6.97;;;;;;;27.01;51.46;100181.00;1648109;86;21240;-58
2021/07/31 07:08:57;;;;;;;9.18;7.45;;;;;;;27.11;51.11;100190.80;1653196;85;21197;-59
2021/07/31 07:12:03;;;;;;;8.78;7.83;;;;;;;27.20;50.70;100188.20;1641988;86;21563;-58
2021/07/31 07:15:09;;;;;;;10.00;7.12;;;;;;;27.28;50.12;100191.85;1642407;86;21220;-58
2021/07/31 07:18:14;;;;;;;9.88;6.65;;;;;;;27.35;49.85;100190.98;1642911;85;21209;-58
2021/07/31 07:21:20;;;;;;;8.18;6.90;;;;;;;27.44;49.25;100187.82;1664416;83;21361;-59
2021/07/31 07:24:28;;;;;;;8.35;6.87;;;;;;;27.50;48.38;100192.27;1669216;85;21218;-59
2021/07/31 07:27:33;;;;;;;8.25;6.58;;;;;;;27.55;48.68;100191.69;1701651;82;21307;-59
2021/07/31 07:30:44;;;;;;;7.78;6.83;;;;;;;27.65;48.86;100190.78;1710974;83;21753;-59
2021/07/31 07:33:50;;;;;;;7.60;6.78;;;;;;;27.73;48.17;100190.16;1714789;83;21366;-60
2021/07/31 07:36:55;;;;;;;7.50;6.62;;;;;;;27.81;47.85;100193.75;1662397;85;21308;-61
2021/07/31 07:40:03;;;;;;;8.45;6.22;;;;;;;27.88;47.81;100191.45;1641006;87;21258;-59
2021/07/31 07:43:08;;;;;;;7.58;6.60;;;;;;;27.94;47.50;100193.68;1662895;86;21281;-59
2021/07/31 07:46:14;;;;;;;6.87;5.85;;;;;;;28.01;47.94;100195.57;1674968;85;21250;-58
2021/07/31 07:49:22;;;;;;;6.85;5.58;;;;;;;28.08;46.66;100187.09;1661277;85;21363;-60
2021/07/31 07:52:29;;;;;;;6.60;5.53;;;;;;;28.16;45.73;100187.00;1633103;87;21860;-59
2021/07/31 07:55:38;;;;;;;11.38;5.92;;;;;;;28.22;45.53;100183.00;1660012;85;21388;-58
2021/07/31 07:58:45;;;;;;;9.98;6.22;;;;;;;28.29;45.74;100182.09;1651900;86;21388;-60
2021/07/31 08:01:52;;;;;;;9.38;6.25;;;;;;;28.34;46.08;100182.02;1668878;86;21740;-58
2021/07/31 08:04:59;;;;;;;7.25;5.85;;;;;;;28.45;45.63;100189.23;1668956;86;21266;-59
2021/07/31 08:08:07;;;;;;;7.08;6.25;;;;;;;28.54;45.47;100184.09;1669242;86;21235;-58
2021/07/31 08:11:16;;;;;;;7.37;5.90;;;;;;;28.63;45.47;100186.54;1669197;86;21251;-59
2021/07/31 08:14:24;;;;;;;7.33;5.90;;;;;;;28.76;45.07;100183.58;1668626;86;22113;-61
2021/07/31 08:17:29;;;;;;;7.67;5.90;;;;;;;28.89;44.46;100184.27;1647898;86;21396;-59
2021/07/31 08:20:36;;;;;;;10.23;6.10;;;;;;;28.94;44.29;100181.36;1666846;85;21209;-58
2021/07/31 08:23:44;;;;;;;9.33;5.95;;;;;;;28.97;44.37;100183.60;1680907;82;21799;-58
2021/07/31 08:26:50;;;;;;;7.72;6.10;;;;;;;28.97;44.26;100183.60;1654760;86;21277;-58
2021/07/31 08:29:58;;;;;;;6.65;5.78;;;;;;;28.94;44.40;100186.99;1707882;82;21359;-59
2021/07/31 08:33:04;;;;;;;6.83;5.78;;;;;;;28.90;43.81;100185.94;1699976;83;21234;-59
2021/07/31 08:36:12;;;;;;;7.00;5.22;;;;;;;28.84;42.65;100187.14;1666240;85;21418;-59
2021/07/31 08:39:22;;;;;;;7.40;5.58;;;;;;;28.79;42.71;100185.78;1641321;87;21380;-59
2021/07/31 08:42:29;;;;;;;9.50;5.35;;;;;;;28.76;42.14;100184.98;1644113;87;21262;-58
2021/07/31 08:45:37;;;;;;;7.15;6.00;;;;;;;28.72;42.41;100181.92;1642569;87;21412;-59
2021/07/31 08:48:45;;;;;;;8.80;6.15;;;;;;;28.72;42.55;100182.48;1624686;87;21416;-58
2021/07/31 08:51:52;;;;;;;7.30;5.58;;;;;;;28.84;42.31;100171.64;1642479;85;21384;-59
2021/07/31 08:55:01;;;;;;;7.08;5.28;;;;;;;29.00;41.59;100168.30;1659037;86;21376;-59
2021/07/31 08:58:10;;;;;;;7.15;5.10;;;;;;;29.18;41.57;100163.87;1642228;87;21318;-59
2021/07/31 09:01:17;;;;;;;6.40;5.15;;;;;;;29.39;40.86;100164.41;1622122;87;21412;-58
2021/07/31 09:04:28;;;;;;;7.85;4.90;;;;;;;29.61;41.00;100166.89;1649148;84;21748;-58
2021/07/31 09:07:34;;;;;;;7.83;5.35;;;;;;;29.80;39.74;100163.52;1627468;87;21257;-58
2021/07/31 09:10:52;;;;;;;8.63;5.35;;;;;;;29.92;39.59;100157.40;1652987;84;21296;-59
2021/07/31 09:14:22;;;;;;;7.45;4.92;;;;;;;30.03;39.32;100161.12;1661356;86;21311;-60
2021/07/31 09:17:34;;;;;;;6.53;5.15;;;;;;;30.16;38.83;100155.28;1692001;84;21826;-58
2021/07/31 09:20:41;;;;;;;8.43;6.03;;;;;;;30.27;38.51;100151.97;1691790;85;21376;-58
2021/07/31 09:24:21;;;;;;;10.45;5.83;;;;;;;30.38;38.97;100158.28;1699592;82;21320;-58
2021/07/31 09:27:34;;;;;;;8.18;5.83;;;;;;;30.45;38.95;100155.87;1691775;85;21281;-58
2021/07/31 09:30:42;;;;;;;8.75;5.85;;;;;;;30.22;39.14;100146.41;1692106;85;21224;-60
2021/07/31 09:33:55;;;;;;;7.60;5.72;;;;;;;30.22;39.14;100146.41;1678085;85;21265;-59
2021/07/31 09:37:27;;;;;;;10.43;5.22;;;;;;;30.10;39.10;100146.05;1702033;82;21229;-58
2021/07/31 09:40:37;;;;;;;5.97;5.40;;;;;;;29.98;38.84;100145.71;1692166;85;21319;-59
2021/07/31 09:43:44;;;;;;;6.08;4.97;;;;;;;29.88;38.68;100140.23;1701761;82;21208;-59
2021/07/31 09:47:01;;;;;;;5.95;4.90;;;;;;;29.88;38.10;100140.23;1676911;85;21358;-60
2021/07/31 09:50:05;;;;;;;11.85;5.42;;;;;;;30.01;37.31;100140.85;1668818;86;21325;-59
2021/07/31 09:53:27;;;;;;;6.30;4.50;;;;;;;30.13;37.74;100145.42;1668838;86;21338;-59
2021/07/31 09:56:37;;;;;;;7.80;4.62;;;;;;;30.26;38.13;100145.22;1627186;87;21759;-60
2021/07/31 09:59:45;;;;;;;7.28;4.65;;;;;;;30.49;37.62;100137.97;1641859;87;21361;-59
2021/07/31 10:02:50;;;;;;;6.45;4.67;;;;;;;30.82;36.31;100126.61;1641451;87;21262;-59
2021/07/31 10:05:57;;;;;;;5.58;4.70;;;;;;;30.82;36.31;100126.61;1664399;84;22096;-59
2021/07/31 10:09:04;;;;;;;5.87;5.20;;;;;;;30.92;36.49;100124.98;1669856;84;21213;-58
2021/07/31 10:12:11;;;;;;;5.17;4.35;;;;;;;31.07;36.77;100128.87;1670828;84;21274;-60
2021/07/31 10:15:21;;;;;;;6.35;4.33;;;;;;;31.15;36.21;100128.97;1681277;84;21208;-60
2021/07/31 10:18:28;;;;;;;6.00;4.47;;;;;;;31.20;36.48;100124.62;1680192;84;21251;-62
2021/07/31 10:21:35;;;;;;;6.08;4.53;;;;;;;31.27;36.15;100125.00;1679543;84;21895;-59
2021/07/31 10:25:11;;;;;;;5.67;4.75;;;;;;;31.35;35.63;100118.62;1682294;83;21272;-59
2021/07/31 10:28:34;;;;;;;6.70;4.28;;;;;;;31.45;36.21;100117.55;1736667;80;21209;-59
2021/07/31 10:31:44;;;;;;;6.78;4.70;;;;;;;31.65;35.61;100118.48;1680178;84;21860;-61
2021/07/31 10:35:05;;;;;;;6.28;4.80;;;;;;;31.77;34.95;100118.16;1672455;84;22082;-60
2021/07/31 10:38:13;;;;;;;8.03;4.30;;;;;;;31.87;34.84;100122.16;1729958;81;21374;-59
2021/07/31 10:41:19;;;;;;;7.10;4.72;;;;;;;31.92;34.80;100121.22;1726315;81;21212;-60
2021/07/31 10:44:25;;;;;;;6.83;4.42;;;;;;;31.97;34.38;100110.57;1730070;81;21268;-60
2021/07/31 10:47:36;;;;;;;7.72;5.15;;;;;;;32.02;34.55;100113.84;1728465;82;21397;-59
2021/07/31 10:50:47;;;;;;;8.13;4.62;;;;;;;32.09;34.26;100114.23;1728160;81;21267;-59
2021/07/31 10:53:56;;;;;;;8.68;4.37;;;;;;;32.17;34.42;100113.45;1695081;84;21230;-60
2021/07/31 10:57:04;;;;;;;5.22;4.22;;;;;;;32.26;34.53;100104.98;1707568;84;21231;-60
2021/07/31 11:00:44;;;;;;;5.95;4.55;;;;;;;32.32;34.15;100102.28;1657227;85;21876;-61
2021/07/31 11:03:51;;;;;;;9.00;4.62;;;;;;;32.30;33.81;100101.77;1642841;85;21219;-60
2021/07/31 11:07:16;;;;;;;5.12;4.40;;;;;;;32.25;33.29;100098.50;1656965;86;21254;-59
2021/07/31 11:10:50;;;;;;;7.10;4.28;;;;;;;32.35;33.15;100097.38;1665750;86;21303;-59
2021/07/31 11:13:59;;;;;;;7.83;4.45;;;;;;;32.46;33.45;100097.38;1708310;83;21221;-61
2021/07/31 11:17:23;;;;;;;6.37;4.70;;;;;;;32.60;32.49;100096.07;1667301;85;21790;-60
2021/07/31 11:20:39;;;;;;;6.10;4.95;;;;;;;32.69;32.34;100089.88;1666039;85;21234;-58
2021/07/31 11:23:48;;;;;;;8.05;4.53;;;;;;;32.82;32.19;100088.07;1669139;85;21832;-60
2021/07/31 11:27:01;;;;;;;6.35;4.20;;;;;;;32.89;31.58;100091.27;1670937;82;21886;-59
2021/07/31 11:30:08;;;;;;;7.87;5.58;;;;;;;32.96;31.55;100086.80;1670523;86;21286;-61
2021/07/31 11:33:35;;;;;;;6.87;4.20;;;;;;;33.07;31.82;100086.73;1664975;86;21311;-61
2021/07/31 11:36:51;;;;;;;6.53;3.98;;;;;;;33.09;31.99;100089.24;1663605;86;21409;-60
2021/07/31 11:39:56;;;;;;;8.15;4.03;;;;;;;33.11;31.48;100089.15;1725620;83;21312;-60
2021/07/31 11:43:05;;;;;;;4.83;4.33;;;;;;;33.13;31.70;100093.92;1679198;85;21889;-61
2021/07/31 11:46:15;;;;;;;11.17;4.90;;;;;;;33.15;31.75;100091.59;1719938;83;21237;-60
2021/07/31 11:49:46;;;;;;;4.75;3.90;;;;;;;33.21;31.47;100083.16;1702494;82;21383;-61
2021/07/31 11:52:55;;;;;;;7.90;4.92;;;;;;;33.25;31.40;100089.83;1722655;83;21395;-60
2021/07/31 11:56:26;;;;;;;10.98;6.05;;;;;;;33.22;31.76;100090.50;1725558;83;21861;-60
2021/07/31 11:59:41;;;;;;;5.22;4.62;;;;;;;33.30;31.65;100086.02;1723732;83;21269;-61
2021/07/31 12:02:47;;;;;;;6.90;4.12;;;;;;;33.44;31.27;100088.72;1724404;83;21402;-62
2021/07/31 12:05:54;;;;;;;6.95;4.70;;;;;;;33.48;31.31;100081.19;1725261;83;21355;-61
2021/07/31 12:09:02;;;;;;;5.85;4.15;;;;;;;33.35;31.32;100082.98;1676007;85;21856;-62
2021/07/31 12:12:09;;;;;;;6.72;4.20;;;;;;;33.14;31.32;100075.71;1725341;83;21580;-60
2021/07/31 12:15:28;;;;;;;8.48;4.55;;;;;;;32.91;31.69;100072.77;1674844;85;21205;-60
2021/07/31 12:18:34;;;;;;;21.62;15.05;;;;;;;32.79;31.95;100072.53;1724961;83;21249;-61
2021/07/31 12:21:42;;;;;;;20.68;13.40;;;;;;;32.82;31.64;100066.80;1725260;83;21273;-61
2021/07/31 12:24:49;;;;;;;90.00;50.05;;;;;;;32.91;32.30;100065.69;1725273;83;21355;-59
2021/07/31 12:28:01;;;;;;;29.35;17.15;;;;;;;33.01;31.78;100063.11;1712884;80;22112;-59
2021/07/31 12:31:08;;;;;;;10.65;6.33;;;;;;;33.05;31.64;100066.94;1728974;83;21872;-59
2021/07/31 12:34:20;;;;;;;19.10;11.30;;;;;;;33.09;31.87;100064.52;1685502;84;21383;-59
2021/07/31 12:37:30;;;;;;;12.05;7.17;;;;;;;33.12;32.26;100058.20;1656094;86;21346;-59
2021/07/31 12:40:39;;;;;;;13.13;7.53;;;;;;;33.16;32.14;100061.19;1707858;83;21248;-59
2021/07/31 12:43:49;;;;;;;47.03;29.35;;;;;;;33.11;31.67;100052.27;1728929;82;21352;-59
2021/07/31 12:46:55;;;;;;;10.60;6.60;;;;;;;33.06;32.11;100055.26;1728942;83;21356;-59
2021/07/31 12:50:01;;;;;;;10.98;7.22;;;;;;;33.04;31.78;100051.94;1685507;85;21427;-58
2021/07/31 12:53:07;;;;;;;7.42;4.53;;;;;;;33.03;31.82;100055.11;1653750;86;21288;-59
2021/07/31 12:56:14;;;;;;;5.33;4.15;;;;;;;32.91;31.28;100050.66;1660882;85;21732;-58
2021/07/31 12:59:19;;;;;;;6.62;4.35;;;;;;;32.71;32.37;100053.52;1700341;83;21310;-59
2021/07/31 13:02:29;;;;;;;5.03;4.53;;;;;;;32.51;32.35;100042.77;1703740;84;21340;-59
2021/07/31 13:05:35;;;;;;;5.42;4.75;;;;;;;32.43;32.40;100050.66;1674656;84;21751;-59
2021/07/31 13:08:40;;;;;;;6.60;4.10;;;;;;;32.47;33.29;100053.11;1706614;82;21394;-59
2021/07/31 13:11:48;;;;;;;7.22;4.58;;;;;;;32.50;32.59;100048.20;1727840;82;21892;-58
2021/07/31 13:14:56;;;;;;;7.30;4.10;;;;;;;32.50;32.59;100035.44;1728122;83;21269;-59
2021/07/31 13:18:02;;;;;;;5.92;4.20;;;;;;;32.51;32.64;100042.77;1728387;83;21224;-59
2021/07/31 13:21:10;;;;;;;7.97;4.67;;;;;;;32.53;33.00;100050.37;1728479;83;21411;-59
2021/07/31 13:24:16;;;;;;;6.83;4.40;;;;;;;32.62;33.70;100046.97;1704378;82;21423;-58
2021/07/31 13:27:24;;;;;;;5.12;3.85;;;;;;;32.71;32.62;100047.85;1715478;82;21318;-59
2021/07/31 13:30:34;;;;;;;6.97;3.95;;;;;;;32.71;32.21;100046.43;1714541;82;21523;-60
2021/07/31 13:33:40;;;;;;;5.00;3.83;;;;;;;32.64;31.89;100054.57;1713821;82;21460;-59
2021/07/31 13:36:47;;;;;;;5.83;3.65;;;;;;;32.62;31.67;100051.22;1715675;81;21284;-59
2021/07/31 13:40:04;;;;;;;5.03;4.03;;;;;;;32.56;31.64;100052.55;1673101;83;21262;-60
2021/07/31 13:43:14;;;;;;;5.78;4.45;;;;;;;32.44;31.72;100049.52;1646153;85;21773;-59
2021/07/31 13:46:24;;;;;;;4.72;3.83;;;;;;;32.39;32.00;100058.73;1644822;84;21746;-59
2021/07/31 13:49:30;;;;;;;8.00;4.03;;;;;;;32.36;32.35;100063.61;1716306;81;21402;-59
2021/07/31 13:52:42;;;;;;;6.17;3.87;;;;;;;32.23;32.25;100054.63;1696585;82;21359;-59
2021/07/31 13:55:49;;;;;;;6.53;4.22;;;;;;;32.10;32.64;100056.41;1714310;82;21240;-60
2021/07/31 13:58:58;;;;;;;4.87;4.20;;;;;;;31.97;33.08;100057.33;1709216;83;21400;-59
2021/07/31 14:02:03;;;;;;;6.03;4.25;;;;;;;31.87;33.46;100045.69;1727927;83;21845;-59
2021/07/31 14:05:14;;;;;;;4.55;3.92;;;;;;;31.88;33.48;100043.70;1684934;85;21359;-59
2021/07/31 14:08:20;;;;;;;6.70;4.45;;;;;;;31.96;33.64;100038.10;1684515;85;21201;-58
2021/07/31 14:11:28;;;;;;;6.85;4.25;;;;;;;32.07;33.26;100044.31;1684842;83;21272;-57
2021/07/31 14:14:34;;;;;;;8.30;4.20;;;;;;;32.16;32.69;100043.76;1689732;84;21272;-59
2021/07/31 14:17:40;;;;;;;12.10;4.15;;;;;;;32.23;32.21;100044.14;1696990;84;21228;-59
2021/07/31 14:20:51;;;;;;;7.55;4.33;;;;;;;32.30;32.42;100033.75;1695503;84;21221;-58
2021/07/31 14:23:56;;;;;;;6.33;5.00;;;;;;;32.36;32.46;100033.28;1696504;84;21729;-59
2021/07/31 14:27:04;;;;;;;5.62;4.75;;;;;;;32.42;33.02;100036.24;1687108;84;21814;-58